Time;durP1;ratioP1;P1;durP2;ratioP2;P2;SDS_P1;SDS_P2;PMS_P1;PMS_P2;Temp;Humidity;BMP_temperature;BMP_pressure;BME280_temperature;BME280_humidity;BME280_pressure;Samples;Min_cycle;Max_cycle;Signal;HPM_P1;HPM_P2
2023/02/17 00:02:24;;;;;;;25.33;13.23;;;10.80;99.90;;;;;;5089829;28;20047;-59
2023/02/17 00:04:52;;;;;;;22.00;13.80;;;10.80;99.90;;;;;;5088467;28;20461;-59
2023/02/17 00:07:18;;;;;;;22.47;12.63;;;10.80;99.90;;;;;;5089563;28;20035;-60
2023/02/17 00:09:43;;;;;;;23.47;13.60;;;10.90;99.90;;;;;;5089982;28;20036;-59
2023/02/17 00:12:09;;;;;;;21.87;13.33;;;10.90;99.90;;;;;;5090025;28;20027;-59
2023/02/17 00:14:35;;;;;;;22.50;12.17;;;10.90;99.90;;;;;;5092438;28;20100;-59
2023/02/17 00:17:01;;;;;;;20.57;12.53;;;10.90;99.90;;;;;;5093301;28;20032;-59
2023/02/17 00:19:26;;;;;;;22.60;12.30;;;10.90;99.90;;;;;;5093476;28;20036;-59
2023/02/17 00:22:00;;;;;;;22.83;13.17;;;10.90;99.90;;;;;;5093577;28;20027;-59
2023/02/17 00:24:29;;;;;;;18.53;11.67;;;10.90;99.90;;;;;;5093259;28;20499;-59
2023/02/17 00:26:55;;;;;;;17.83;11.23;;;10.90;99.90;;;;;;5093191;28;20302;-59
2023/02/17 00:29:21;;;;;;;19.07;10.63;;;11.00;99.90;;;;;;5093244;28;20078;-59
2023/02/17 00:31:47;;;;;;;17.83;10.57;;;11.00;99.90;;;;;;5091985;28;20392;-59
2023/02/17 00:34:16;;;;;;;18.33;11.07;;;10.90;99.90;;;;;;5091617;28;20032;-59
2023/02/17 00:36:42;;;;;;;16.73;10.32;;;11.00;99.90;;;;;;5092788;28;20107;-59
2023/02/17 00:39:08;;;;;;;18.47;10.00;;;11.00;99.90;;;;;;5091816;28;20478;-59
2023/02/17 00:41:34;;;;;;;16.73;9.80;;;11.10;99.90;;;;;;5093099;28;20107;-59
2023/02/17 00:43:59;;;;;;;19.17;11.13;;;11.10;99.90;;;;;;5092791;28;20047;-59
2023/02/17 00:46:26;;;;;;;18.97;11.00;;;11.10;99.90;;;;;;5092674;28;20032;-59
2023/02/17 00:48:52;;;;;;;17.73;10.53;;;11.10;99.90;;;;;;5091623;28;20028;-59
2023/02/17 00:51:18;;;;;;;16.40;10.37;;;11.10;99.90;;;;;;5091657;28;20020;-59
2023/02/17 00:53:44;;;;;;;20.67;11.33;;;11.10;99.90;;;;;;5092653;28;20092;-59
2023/02/17 00:56:11;;;;;;;22.87;12.07;;;11.00;99.90;;;;;;5092877;28;20032;-59
2023/02/17 00:58:38;;;;;;;20.07;11.23;;;11.00;99.90;;;;;;5092416;28;20121;-59
2023/02/17 01:01:03;;;;;;;21.40;11.40;;;11.10;99.90;;;;;;5092760;28;20032;-59
2023/02/17 01:03:30;;;;;;;17.50;10.93;;;11.00;99.90;;;;;;5091216;28;20036;-59
2023/02/17 01:05:57;;;;;;;20.00;11.17;;;11.00;99.90;;;;;;5091032;28;20060;-57
2023/02/17 01:08:24;;;;;;;16.70;11.07;;;11.00;99.90;;;;;;5092572;28;20085;-57
2023/02/17 01:10:51;;;;;;;17.07;10.60;;;10.90;99.90;;;;;;5091304;28;20028;-57
2023/02/17 01:13:18;;;;;;;24.40;12.43;;;10.90;99.90;;;;;;5092374;28;20073;-57
2023/02/17 01:15:49;;;;;;;21.43;12.17;;;10.90;99.90;;;;;;5090943;28;20086;-57
2023/02/17 01:18:16;;;;;;;24.13;13.10;;;10.80;99.90;;;;;;5091046;28;20035;-58
2023/02/17 01:20:42;;;;;;;22.07;13.57;;;10.80;99.90;;;;;;5090843;28;20373;-58
2023/02/17 01:23:10;;;;;;;20.87;12.97;;;10.80;99.90;;;;;;5090951;28;20039;-58
2023/02/17 01:25:37;;;;;;;23.80;13.90;;;10.80;99.90;;;;;;5089602;28;20062;-58
2023/02/17 01:28:04;;;;;;;23.13;14.50;;;10.80;99.90;;;;;;5091910;28;20024;-58
2023/02/17 01:30:30;;;;;;;25.07;14.80;;;10.80;99.90;;;;;;5092279;28;20385;-58
2023/02/17 01:32:56;;;;;;;22.77;13.47;;;10.80;99.90;;;;;;5090811;28;20032;-58
2023/02/17 01:35:21;;;;;;;22.20;12.80;;;10.70;99.90;;;;;;5091888;28;20031;-58
2023/02/17 01:37:47;;;;;;;23.40;13.40;;;10.70;99.90;;;;;;5091716;28;20032;-58
2023/02/17 01:40:14;;;;;;;23.80;12.40;;;10.70;99.90;;;;;;5091901;28;20035;-58
2023/02/17 01:42:40;;;;;;;21.53;13.07;;;10.70;99.90;;;;;;5091800;28;20039;-58
2023/02/17 01:45:18;;;;;;;22.93;13.80;;;10.70;99.90;;;;;;5090215;28;20408;-58
2023/02/17 01:47:49;;;;;;;20.93;12.97;;;10.60;99.90;;;;;;5091562;28;20369;-57
2023/02/17 01:50:17;;;;;;;23.60;13.60;;;10.60;99.90;;;;;;5091765;28;20040;-58
2023/02/17 01:52:43;;;;;;;24.30;14.03;;;10.60;99.90;;;;;;5090391;28;20157;-57
2023/02/17 01:55:14;;;;;;;24.03;14.00;;;10.60;99.90;;;;;;5091396;28;20602;-58
2023/02/17 01:57:42;;;;;;;23.10;14.17;;;10.60;99.90;;;;;;5089998;28;20031;-57
2023/02/17 02:00:10;;;;;;;20.17;12.40;;;10.60;99.90;;;;;;5090134;28;20043;-57
2023/02/17 02:02:42;;;;;;;21.70;14.07;;;10.60;99.90;;;;;;5092027;28;20230;-58
2023/02/17 02:05:12;;;;;;;20.67;13.10;;;10.60;99.90;;;;;;5089928;28;20519;-58
2023/02/17 02:07:41;;;;;;;21.60;13.23;;;10.60;99.90;;;;;;5090940;28;20077;-58
2023/02/17 02:10:09;;;;;;;22.33;14.13;;;10.60;99.90;;;;;;5091310;28;20039;-58
2023/02/17 02:12:38;;;;;;;23.47;14.63;;;10.60;99.90;;;;;;5091375;28;20049;-58
2023/02/17 02:15:12;;;;;;;22.98;14.85;;;10.60;99.90;;;;;;5089902;28;20036;-58
2023/02/17 02:17:57;;;;;;;22.67;14.10;;;10.60;99.90;;;;;;5091086;28;20040;-58
2023/02/17 02:20:40;;;;;;;24.70;13.47;;;10.60;99.90;;;;;;5091157;28;20043;-58
2023/02/17 02:23:34;;;;;;;21.50;13.27;;;10.60;99.90;;;;;;5091130;28;20507;-58
2023/02/17 02:26:21;;;;;;;17.70;11.37;;;10.70;99.90;;;;;;5090956;28;20035;-58
2023/02/17 02:29:25;;;;;;;16.90;11.07;;;10.80;99.90;;;;;;5089854;28;20032;-58
2023/02/17 02:32:29;;;;;;;15.07;10.33;;;10.80;99.90;;;;;;5056224;28;20035;-58
2023/02/17 02:35:02;;;;;;;17.53;10.00;;;10.80;99.90;;;;;;5089532;28;20024;-58
2023/02/17 02:37:38;;;;;;;14.83;9.20;;;10.90;99.90;;;;;;5089082;28;20042;-58
2023/02/17 02:40:07;;;;;;;14.73;9.23;;;10.90;99.90;;;;;;5089520;28;20020;-58
2023/02/17 02:42:35;;;;;;;12.90;9.13;;;10.90;99.90;;;;;;5089464;28;20028;-58
2023/02/17 02:45:00;;;;;;;12.77;8.83;;;10.90;99.90;;;;;;5089355;28;20043;-58
2023/02/17 02:47:49;;;;;;;13.13;8.67;;;11.00;99.90;;;;;;5090525;28;20020;-58
2023/02/17 02:50:53;;;;;;;14.93;9.80;;;11.00;99.90;;;;;;5089388;28;20035;-58
2023/02/17 02:53:44;;;;;;;12.73;8.73;;;10.90;99.90;;;;;;5086969;28;20059;-58
2023/02/17 02:56:37;;;;;;;15.63;9.40;;;11.00;99.90;;;;;;5089296;28;20027;-58
2023/02/17 02:59:21;;;;;;;12.33;8.53;;;11.00;99.90;;;;;;5089337;28;20423;-58
2023/02/17 03:01:50;;;;;;;12.60;8.57;;;10.90;99.90;;;;;;5089240;28;20108;-58
2023/02/17 03:04:35;;;;;;;12.77;8.57;;;11.00;99.90;;;;;;5089036;28;20435;-58
2023/02/17 03:07:06;;;;;;;14.90;9.70;;;10.90;99.90;;;;;;5088814;28;20048;-58
2023/02/17 03:09:32;;;;;;;14.23;9.07;;;11.00;99.90;;;;;;5090417;28;20028;-58
2023/02/17 03:11:58;;;;;;;15.33;9.10;;;11.00;99.90;;;;;;5089582;28;20403;-58
2023/02/17 03:14:26;;;;;;;14.83;10.27;;;11.00;99.90;;;;;;5088983;28;20103;-59
2023/02/17 03:16:52;;;;;;;14.17;9.47;;;11.00;99.90;;;;;;5088861;28;20040;-58
2023/02/17 03:19:20;;;;;;;16.47;9.97;;;11.00;99.90;;;;;;5090386;28;20027;-58
2023/02/17 03:21:52;;;;;;;14.97;9.27;;;11.10;99.90;;;;;;5089072;28;20126;-59
2023/02/17 03:24:19;;;;;;;16.90;9.83;;;11.00;99.90;;;;;;5088838;28;20110;-58
2023/02/17 03:26:44;;;;;;;15.43;10.03;;;11.00;99.90;;;;;;5088706;28;20034;-58
2023/02/17 03:29:10;;;;;;;14.40;9.47;;;11.00;99.90;;;;;;5088936;28;20024;-59
2023/02/17 03:31:37;;;;;;;13.13;8.53;;;11.00;99.90;;;;;;5088990;28;20457;-58
2023/02/17 03:34:03;;;;;;;14.77;9.70;;;11.00;99.90;;;;;;5090411;28;20024;-59
2023/02/17 03:36:29;;;;;;;12.13;8.53;;;11.00;99.90;;;;;;5090169;28;20465;-59
2023/02/17 03:38:56;;;;;;;12.07;8.97;;;11.00;99.90;;;;;;5090222;28;20032;-59
2023/02/17 03:41:22;;;;;;;14.47;8.80;;;11.10;99.90;;;;;;5090166;28;20036;-58
2023/02/17 03:43:48;;;;;;;13.37;9.00;;;11.10;99.90;;;;;;5089998;28;20034;-58
2023/02/17 03:46:15;;;;;;;13.93;8.93;;;11.00;99.90;;;;;;5090429;28;20024;-59
2023/02/17 03:48:41;;;;;;;13.13;8.00;;;11.10;99.90;;;;;;5091440;28;20530;-58
2023/02/17 03:51:21;;;;;;;11.73;8.50;;;11.00;99.90;;;;;;5094324;28;20036;-59
2023/02/17 03:53:47;;;;;;;13.70;9.07;;;11.00;99.90;;;;;;5093758;28;20043;-58
2023/02/17 03:56:14;;;;;;;14.10;9.07;;;11.10;99.90;;;;;;5093912;28;20039;-58
2023/02/17 03:58:40;;;;;;;16.10;8.77;;;11.10;99.90;;;;;;5093952;28;20515;-59
2023/02/17 04:01:08;;;;;;;11.57;8.40;;;11.00;99.90;;;;;;5094161;28;20113;-58
2023/02/17 04:03:34;;;;;;;13.80;8.13;;;11.10;99.90;;;;;;5093593;28;20039;-59
2023/02/17 04:06:00;;;;;;;12.57;7.90;;;11.10;99.90;;;;;;5093598;28;20039;-59
2023/02/17 04:08:26;;;;;;;12.07;7.47;;;11.10;99.90;;;;;;5093208;28;20116;-59
2023/02/17 04:10:54;;;;;;;12.90;8.43;;;11.10;99.90;;;;;;5093927;28;20455;-58
2023/02/17 04:13:20;;;;;;;11.60;7.83;;;11.10;99.90;;;;;;5093755;28;20107;-59
2023/02/17 04:15:46;;;;;;;10.50;7.70;;;11.10;99.90;;;;;;5093642;28;20111;-59
2023/02/17 04:18:12;;;;;;;9.90;7.60;;;11.20;99.90;;;;;;5093454;28;20032;-59
2023/02/17 04:20:37;;;;;;;13.13;8.47;;;11.10;99.90;;;;;;5093395;28;20024;-59
2023/02/17 04:23:03;;;;;;;12.30;7.87;;;11.10;99.90;;;;;;5093370;28;20057;-58
2023/02/17 04:25:29;;;;;;;11.30;7.47;;;11.10;99.90;;;;;;5093195;28;20028;-59
2023/02/17 04:27:54;;;;;;;10.57;7.27;;;11.10;99.90;;;;;;5093281;28;20089;-58
2023/02/17 04:30:20;;;;;;;9.83;7.17;;;11.20;99.90;;;;;;5093302;28;20055;-59
2023/02/17 04:32:46;;;;;;;12.70;7.70;;;11.10;99.90;;;;;;5093373;28;20070;-59
2023/02/17 04:35:12;;;;;;;10.93;7.17;;;11.10;99.90;;;;;;5093052;28;20035;-59
2023/02/17 04:37:37;;;;;;;11.67;7.70;;;11.10;99.90;;;;;;5092713;28;20139;-58
2023/02/17 04:40:08;;;;;;;11.13;7.33;;;11.10;99.90;;;;;;5093179;28;20032;-59
2023/02/17 04:42:37;;;;;;;10.40;8.03;;;11.10;99.90;;;;;;5093195;28;20123;-59
2023/02/17 04:45:06;;;;;;;10.23;7.53;;;11.10;99.90;;;;;;5092831;28;20024;-58
2023/02/17 04:47:32;;;;;;;11.80;7.47;;;11.10;99.90;;;;;;5091493;28;20031;-59
2023/02/17 04:49:58;;;;;;;10.57;7.17;;;11.10;99.90;;;;;;5092689;28;20028;-59
2023/02/17 04:52:24;;;;;;;12.03;7.73;;;11.10;99.90;;;;;;5092982;28;20035;-58
2023/02/17 04:54:49;;;;;;;14.37;8.10;;;11.10;99.90;;;;;;5092578;28;20055;-59
2023/02/17 04:57:15;;;;;;;12.20;8.27;;;11.10;99.90;;;;;;5092366;28;20028;-58
2023/02/17 04:59:41;;;;;;;13.53;8.17;;;11.10;99.90;;;;;;5092820;28;20020;-58
2023/02/17 05:02:06;;;;;;;11.43;7.53;;;11.10;99.90;;;;;;5092698;28;20484;-58
2023/02/17 05:04:32;;;;;;;12.00;7.60;;;11.10;99.90;;;;;;5092511;28;20028;-59
2023/02/17 05:06:58;;;;;;;10.73;7.30;;;11.10;99.90;;;;;;5092114;28;20131;-58
2023/02/17 05:09:24;;;;;;;11.50;6.90;;;11.10;99.90;;;;;;5092602;28;20106;-59
2023/02/17 05:11:50;;;;;;;9.60;6.60;;;11.10;99.90;;;;;;5092611;28;20032;-59
2023/02/17 05:14:16;;;;;;;9.07;5.77;;;11.20;99.90;;;;;;5092463;28;20681;-58
2023/02/17 05:16:41;;;;;;;10.37;5.77;;;11.20;99.90;;;;;;5092330;28;20031;-59
2023/02/17 05:19:07;;;;;;;10.87;5.57;;;11.20;99.90;;;;;;5092288;28;20097;-58
2023/02/17 05:21:33;;;;;;;7.67;4.60;;;11.10;99.90;;;;;;5092348;28;20063;-58
2023/02/17 05:23:59;;;;;;;8.83;5.60;;;11.20;99.90;;;;;;5092297;28;20035;-58
2023/02/17 05:26:25;;;;;;;7.20;5.37;;;11.20;99.90;;;;;;5091978;28;20070;-59
2023/02/17 05:28:50;;;;;;;7.27;5.37;;;11.20;99.90;;;;;;5092196;28;20086;-59
2023/02/17 05:31:16;;;;;;;8.40;5.37;;;11.10;99.90;;;;;;5092252;28;20032;-59
2023/02/17 05:33:42;;;;;;;8.47;5.70;;;11.10;99.90;;;;;;5091826;28;20032;-58
2023/02/17 05:36:10;;;;;;;7.23;5.40;;;11.10;99.90;;;;;;5092112;28;20062;-58
2023/02/17 05:38:36;;;;;;;7.23;5.50;;;11.10;99.90;;;;;;5091937;28;20039;-59
2023/02/17 05:41:02;;;;;;;9.37;6.23;;;11.10;99.90;;;;;;5091960;28;20074;-59
2023/02/17 05:43:28;;;;;;;11.50;6.60;;;11.10;99.90;;;;;;5091815;28;20070;-59
2023/02/17 05:45:53;;;;;;;8.40;6.27;;;11.00;99.90;;;;;;5091719;28;20069;-59
2023/02/17 05:48:19;;;;;;;10.00;6.60;;;11.00;99.90;;;;;;5091474;28;20024;-58
2023/02/17 05:50:45;;;;;;;12.63;8.30;;;11.10;99.90;;;;;;5091654;28;20499;-59
2023/02/17 05:53:11;;;;;;;9.83;6.50;;;11.00;99.90;;;;;;5091783;28;20103;-58
2023/02/17 05:55:37;;;;;;;8.47;6.33;;;11.10;99.90;;;;;;5091482;28;20039;-59
2023/02/17 05:58:03;;;;;;;10.77;6.97;;;11.10;99.90;;;;;;5091451;28;20028;-59
2023/02/17 06:00:29;;;;;;;10.50;6.83;;;11.00;99.90;;;;;;5091719;28;20052;-59
2023/02/17 06:02:54;;;;;;;9.23;6.40;;;11.10;99.90;;;;;;5091327;28;20123;-58
2023/02/17 06:05:20;;;;;;;8.63;6.20;;;11.10;99.90;;;;;;5091483;28;20103;-59
2023/02/17 06:07:46;;;;;;;10.53;6.20;;;11.10;99.90;;;;;;5091249;28;20484;-59
2023/02/17 06:10:12;;;;;;;9.13;6.57;;;11.10;99.90;;;;;;5091474;28;20492;-59
2023/02/17 06:12:38;;;;;;;8.83;6.43;;;11.10;99.90;;;;;;5090985;28;20462;-58
2023/02/17 06:15:04;;;;;;;9.27;6.40;;;11.10;99.90;;;;;;5091215;28;20032;-59
2023/02/17 06:17:29;;;;;;;11.30;6.60;;;11.10;99.90;;;;;;5091085;28;20035;-59
2023/02/17 06:19:55;;;;;;;11.13;7.40;;;11.10;99.90;;;;;;5091104;28;20046;-59
2023/02/17 06:22:21;;;;;;;11.80;7.93;;;11.20;99.90;;;;;;5091216;28;20028;-59
2023/02/17 06:24:46;;;;;;;12.43;7.80;;;11.10;99.90;;;;;;5090981;28;20024;-59
2023/02/17 06:27:12;;;;;;;12.20;8.57;;;11.10;99.90;;;;;;5090880;28;20042;-59
2023/02/17 06:29:38;;;;;;;12.73;8.10;;;11.10;99.90;;;;;;5091241;28;20020;-59
2023/02/17 06:32:03;;;;;;;14.20;9.00;;;11.10;99.90;;;;;;5090977;28;20036;-58
2023/02/17 06:34:29;;;;;;;14.77;8.87;;;11.20;99.90;;;;;;5091073;28;20404;-58
2023/02/17 06:36:55;;;;;;;14.47;8.53;;;11.20;99.90;;;;;;5090770;28;20107;-58
2023/02/17 06:39:21;;;;;;;14.23;9.33;;;11.20;99.90;;;;;;5091017;28;20024;-59
2023/02/17 06:41:47;;;;;;;13.60;8.63;;;11.20;99.90;;;;;;5091039;28;20396;-58
2023/02/17 06:44:12;;;;;;;12.73;8.07;;;11.20;99.90;;;;;;5090785;28;20032;-59
2023/02/17 06:46:38;;;;;;;13.00;8.17;;;11.20;99.90;;;;;;5090408;28;20035;-59
2023/02/17 06:49:04;;;;;;;13.97;9.20;;;11.20;99.90;;;;;;5090605;28;20028;-61
2023/02/17 06:51:30;;;;;;;12.83;8.57;;;11.10;99.90;;;;;;5090835;28;20043;-58
2023/02/17 06:53:56;;;;;;;12.63;8.27;;;11.20;99.90;;;;;;5090454;28;20108;-59
2023/02/17 06:56:22;;;;;;;13.50;8.33;;;11.10;99.90;;;;;;5090400;28;20519;-59
2023/02/17 06:58:47;;;;;;;16.53;8.33;;;11.10;99.90;;;;;;5091241;28;20437;-58
2023/02/17 07:01:18;;;;;;;13.10;8.47;;;11.00;99.90;;;;;;5090586;28;20044;-59
2023/02/17 07:03:44;;;;;;;14.50;8.67;;;11.10;99.90;;;;;;5090774;28;20369;-59
2023/02/17 07:06:10;;;;;;;16.67;8.57;;;11.00;99.90;;;;;;5090498;28;20032;-58
2023/02/17 07:08:35;;;;;;;13.43;8.33;;;11.00;99.90;;;;;;5090428;28;20495;-59
2023/02/17 07:11:10;;;;;;;15.33;8.77;;;11.00;99.90;;;;;;5090708;28;20028;-59
2023/02/17 07:13:36;;;;;;;12.30;7.97;;;11.00;99.90;;;;;;5090429;28;20035;-59
2023/02/17 07:16:02;;;;;;;13.37;7.90;;;11.00;99.90;;;;;;5090540;28;20454;-58
2023/02/17 07:18:28;;;;;;;12.87;7.40;;;11.10;99.90;;;;;;5090670;28;20103;-59
2023/02/17 07:20:53;;;;;;;13.03;8.57;;;11.10;99.90;;;;;;5090501;28;20504;-59
2023/02/17 07:23:19;;;;;;;10.50;7.10;;;11.10;99.90;;;;;;5091555;28;20055;-59
2023/02/17 07:25:45;;;;;;;11.37;7.77;;;11.00;99.90;;;;;;5094816;28;20480;-59
2023/02/17 07:28:11;;;;;;;11.60;7.20;;;11.10;99.90;;;;;;5094567;28;20034;-59
2023/02/17 07:30:40;;;;;;;11.90;8.00;;;11.10;99.90;;;;;;5094643;28;20076;-58
2023/02/17 07:33:06;;;;;;;13.43;7.68;;;11.20;99.90;;;;;;5093847;28;20031;-59
2023/02/17 07:35:33;;;;;;;13.57;7.30;;;11.20;99.90;;;;;;5094667;28;20450;-59
2023/02/17 07:37:59;;;;;;;11.50;7.63;;;11.20;99.90;;;;;;5094541;28;20054;-59
2023/02/17 07:40:26;;;;;;;11.47;7.57;;;11.10;99.90;;;;;;5094623;28;20397;-58
2023/02/17 07:42:52;;;;;;;11.57;7.30;;;11.10;99.90;;;;;;5094556;28;20054;-58
2023/02/17 07:45:18;;;;;;;10.70;6.93;;;11.20;99.90;;;;;;5094475;28;20032;-58
2023/02/17 07:47:44;;;;;;;10.57;7.83;;;11.20;99.90;;;;;;5094282;28;20034;-59
2023/02/17 07:50:10;;;;;;;11.30;7.47;;;11.20;99.90;;;;;;5094406;28;20502;-59
2023/02/17 07:52:36;;;;;;;9.73;7.07;;;11.30;99.90;;;;;;5094678;28;20035;-58
2023/02/17 07:55:01;;;;;;;11.80;7.37;;;11.20;99.90;;;;;;5094274;28;20024;-58
2023/02/17 07:57:27;;;;;;;12.87;7.20;;;11.20;99.90;;;;;;5094063;28;20031;-58
2023/02/17 07:59:53;;;;;;;11.73;7.50;;;11.20;99.90;;;;;;5094340;28;20032;-58
2023/02/17 08:02:18;;;;;;;12.80;7.23;;;11.20;99.90;;;;;;5094446;28;20078;-59
2023/02/17 08:04:45;;;;;;;10.20;7.17;;;11.30;99.90;;;;;;5094119;28;20069;-58
2023/02/17 08:07:10;;;;;;;10.93;7.13;;;11.30;99.90;;;;;;5093774;28;20028;-59
2023/02/17 08:15:07;;;;;;;10.77;6.90;;;11.40;99.90;;;;;;5093737;28;20058;-58
2023/02/17 08:17:33;;;;;;;11.67;7.63;;;11.30;99.90;;;;;;5093911;28;20028;-58
2023/02/17 08:19:59;;;;;;;11.60;7.37;;;11.40;99.90;;;;;;5093949;28;20507;-59
2023/02/17 08:22:25;;;;;;;9.00;6.63;;;11.40;99.90;;;;;;5093970;28;20024;-59
2023/02/17 08:24:51;;;;;;;10.47;6.57;;;11.40;99.90;;;;;;5093607;28;20028;-59
2023/02/17 08:27:17;;;;;;;10.37;6.57;;;11.40;99.90;;;;;;5093430;28;20040;-58
2023/02/17 08:29:44;;;;;;;11.37;7.07;;;11.40;99.90;;;;;;5093755;28;20138;-59
2023/02/17 08:32:10;;;;;;;11.00;6.37;;;11.50;99.90;;;;;;5093651;28;20028;-59
2023/02/17 08:34:36;;;;;;;9.97;6.20;;;11.50;99.90;;;;;;5093019;28;20043;-59
2023/02/17 08:37:04;;;;;;;11.20;6.73;;;11.50;99.90;;;;;;5093288;28;20032;-58
2023/02/17 08:39:30;;;;;;;9.83;6.57;;;11.50;99.90;;;;;;5093624;28;20024;-59
2023/02/17 08:41:56;;;;;;;10.83;6.20;;;11.50;99.90;;;;;;5093539;28;20039;-59
2023/02/17 08:44:22;;;;;;;9.33;6.10;;;11.50;99.90;;;;;;5093403;28;20085;-58
2023/02/17 08:46:49;;;;;;;9.33;6.63;;;11.50;99.90;;;;;;5093140;28;20028;-58
2023/02/17 08:49:18;;;;;;;10.17;5.57;;;11.60;99.90;;;;;;5093347;28;20054;-58
2023/02/17 08:51:44;;;;;;;10.33;6.17;;;11.60;99.90;;;;;;5093359;28;20012;-58
2023/02/17 08:54:10;;;;;;;8.53;5.30;;;11.70;99.90;;;;;;5093045;28;20513;-59
2023/02/17 08:56:38;;;;;;;10.03;6.13;;;11.70;99.90;;;;;;5092946;28;20496;-59
2023/02/17 08:59:06;;;;;;;9.83;5.40;;;11.80;99.90;;;;;;5093091;28;20051;-58
2023/02/17 09:01:32;;;;;;;10.97;6.07;;;11.80;99.90;;;;;;5093122;28;20550;-59
2023/02/17 09:04:01;;;;;;;10.20;5.83;;;11.90;99.90;;;;;;5092859;28;20032;-58
2023/02/17 09:06:39;;;;;;;10.70;5.78;;;11.90;99.90;;;;;;5092374;28;20036;-59
2023/02/17 09:09:07;;;;;;;11.53;5.47;;;11.90;99.90;;;;;;5092909;28;20032;-58
2023/02/17 09:11:34;;;;;;;8.97;5.83;;;12.00;99.90;;;;;;5092873;28;20426;-59
2023/02/17 09:14:00;;;;;;;11.43;6.77;;;12.10;99.90;;;;;;5092551;28;20024;-58
2023/02/17 09:16:26;;;;;;;10.63;5.97;;;12.10;99.90;;;;;;5092423;28;20507;-59
2023/02/17 09:18:53;;;;;;;9.20;5.57;;;12.20;99.90;;;;;;5092434;28;20530;-59
2023/02/17 09:21:19;;;;;;;9.90;5.90;;;12.20;99.90;;;;;;5092532;28;20059;-59
2023/02/17 09:23:45;;;;;;;10.00;5.80;;;12.30;99.90;;;;;;5092333;28;20058;-59
2023/02/17 09:26:12;;;;;;;11.83;6.03;;;12.30;99.90;;;;;;5092159;28;20036;-59
2023/02/17 09:28:38;;;;;;;9.23;5.63;;;12.40;99.90;;;;;;5092199;28;20377;-59
2023/02/17 09:31:09;;;;;;;8.17;5.00;;;12.40;99.90;;;;;;5092237;28;20024;-59
2023/02/17 09:33:35;;;;;;;8.40;5.80;;;12.50;99.90;;;;;;5092120;28;20248;-59
2023/02/17 09:36:01;;;;;;;9.93;5.43;;;12.50;99.90;;;;;;5092196;28;20024;-59
2023/02/17 09:38:27;;;;;;;8.75;4.85;;;12.50;99.90;;;;;;5092007;28;20392;-59
2023/02/17 09:40:52;;;;;;;10.13;6.03;;;12.60;99.90;;;;;;5090547;28;20036;-59
2023/02/17 09:43:25;;;;;;;8.70;5.73;;;12.80;99.90;;;;;;5091801;28;20036;-59
2023/02/17 09:45:57;;;;;;;9.77;6.10;;;12.80;99.90;;;;;;5091002;28;20040;-59
2023/02/17 09:48:27;;;;;;;7.75;5.13;;;12.90;99.90;;;;;;5091800;28;20036;-58
2023/02/17 09:51:02;;;;;;;10.60;5.72;;;12.90;99.90;;;;;;5091986;28;20400;-59
2023/02/17 09:53:45;;;;;;;6.80;5.10;;;12.90;99.90;;;;;;5091870;28;20077;-59
2023/02/17 09:56:19;;;;;;;7.97;5.20;;;13.00;99.90;;;;;;5091683;28;20043;-59
2023/02/17 09:58:57;;;;;;;10.07;5.70;;;13.00;99.90;;;;;;5091793;28;20115;-59
2023/02/17 10:01:28;;;;;;;9.80;6.00;;;13.10;99.90;;;;;;5091708;28;20077;-59
2023/02/17 10:04:28;;;;;;;9.07;5.50;;;13.10;99.90;;;;;;5091564;28;20032;-59
2023/02/17 10:07:10;;;;;;;9.57;6.22;;;13.10;99.90;;;;;;5102228;22;20052;-54
2023/02/17 10:09:52;;;;;;;8.85;6.05;;;13.10;99.90;;;;;;5091657;28;20032;-55
2023/02/17 10:12:24;;;;;;;9.35;5.50;;;13.10;99.90;;;;;;5091977;28;20016;-57
2023/02/17 10:15:09;;;;;;;10.07;5.28;;;13.10;99.90;;;;;;5091242;28;20028;-58
2023/02/17 10:17:39;;;;;;;11.13;5.72;;;13.20;99.90;;;;;;5091544;28;20388;-56
2023/02/17 10:20:23;;;;;;;9.63;6.07;;;13.30;99.90;;;;;;5091449;28;20032;-55
2023/02/17 10:23:15;;;;;;;8.70;5.65;;;13.30;99.90;;;;;;5091445;28;20105;-57
2023/02/17 10:25:55;;;;;;;10.73;5.63;;;13.30;99.90;;;;;;5091154;28;20032;-57
2023/02/17 10:28:32;;;;;;;12.52;6.32;;;13.30;99.90;;;;;;5090963;28;20020;-57
2023/02/17 10:31:02;;;;;;;12.65;5.60;;;13.20;99.90;;;;;;5091255;28;20111;-57
2023/02/17 10:33:35;;;;;;;8.50;5.20;;;13.20;99.90;;;;;;5091018;28;20424;-58
2023/02/17 10:36:27;;;;;;;11.60;6.13;;;13.20;99.90;;;;;;5091355;28;20028;-56
2023/02/17 10:39:09;;;;;;;10.23;5.57;;;13.10;99.90;;;;;;5091233;28;20042;-56
2023/02/17 10:41:38;;;;;;;9.05;4.90;;;13.10;99.90;;;;;;5091024;28;20071;-55
2023/02/17 10:44:18;;;;;;;8.02;5.03;;;13.10;99.90;;;;;;5090650;28;20039;-57
2023/02/17 10:46:47;;;;;;;9.63;5.57;;;13.10;99.90;;;;;;5090664;28;20093;-56
2023/02/17 10:49:41;;;;;;;8.32;5.25;;;13.10;99.90;;;;;;5090981;28;20100;-56
2023/02/17 10:52:19;;;;;;;9.27;5.00;;;13.10;99.90;;;;;;5091331;28;20028;-57
2023/02/17 10:55:01;;;;;;;9.52;5.32;;;13.20;99.90;;;;;;5091187;28;20028;-57
2023/02/17 10:57:36;;;;;;;8.55;5.00;;;13.30;99.90;;;;;;5090396;28;20036;-55
2023/02/17 11:00:08;;;;;;;14.35;5.40;;;13.40;99.90;;;;;;5090696;28;20073;-58
2023/02/17 11:02:50;;;;;;;9.23;5.22;;;13.50;99.90;;;;;;5090885;28;20566;-56
2023/02/17 11:05:26;;;;;;;10.00;4.35;;;13.50;99.90;;;;;;5090466;28;20028;-57
2023/02/17 11:08:04;;;;;;;8.40;4.30;;;13.50;99.90;;;;;;5090413;28;20439;-57
2023/02/17 11:10:33;;;;;;;9.15;4.57;;;13.50;99.90;;;;;;5090500;28;20078;-58
2023/02/17 11:13:02;;;;;;;10.50;4.10;;;13.50;99.90;;;;;;5090511;28;20032;-56
2023/02/17 11:15:44;;;;;;;8.77;4.60;;;13.50;99.90;;;;;;5090270;28;20446;-57
2023/02/17 11:18:17;;;;;;;9.13;4.78;;;13.50;99.90;;;;;;5090364;28;20119;-56
2023/02/17 11:20:42;;;;;;;9.73;4.20;;;13.50;99.90;;;;;;5090365;28;20056;-55
2023/02/17 11:23:14;;;;;;;7.53;4.20;;;13.50;99.90;;;;;;5090572;28;20036;-53
2023/02/17 11:25:41;;;;;;;9.18;4.10;;;13.50;99.90;;;;;;5090111;28;20081;-57
2023/02/17 11:28:21;;;;;;;9.07;4.45;;;13.60;99.90;;;;;;5090283;28;20032;-56
2023/02/17 11:30:54;;;;;;;9.40;4.10;;;13.70;99.90;;;;;;5090450;28;20106;-57
2023/02/17 11:33:27;;;;;;;7.45;4.05;;;13.90;99.90;;;;;;5090266;28;20111;-55
2023/02/17 11:35:55;;;;;;;8.77;4.63;;;14.00;99.90;;;;;;5090390;28;20032;-58
2023/02/17 11:38:43;;;;;;;9.88;3.95;;;14.00;99.90;;;;;;5090015;28;20066;-56
2023/02/17 11:41:10;;;;;;;8.67;4.33;;;14.10;99.90;;;;;;5090421;28;20032;-55
2023/02/17 11:43:37;;;;;;;6.75;3.70;;;14.10;99.90;;;;;;5090093;28;20036;-56
2023/02/17 11:46:37;;;;;;;6.10;3.78;;;14.10;99.90;;;;;;5090256;28;20031;-56
2023/02/17 11:49:14;;;;;;;7.78;4.05;;;14.20;99.90;;;;;;5090475;28;20384;-58
2023/02/17 11:52:18;;;;;;;9.95;4.20;;;14.20;99.90;;;;;;5090256;28;20038;-57
2023/02/17 11:55:02;;;;;;;6.53;3.85;;;14.20;99.90;;;;;;5090018;28;20031;-57
2023/02/17 11:57:52;;;;;;;9.30;4.20;;;14.20;99.90;;;;;;5088512;28;20175;-57
2023/02/17 12:00:50;;;;;;;7.40;3.63;;;14.10;99.90;;;;;;5090302;28;20074;-57
2023/02/17 12:03:19;;;;;;;7.50;3.90;;;14.10;99.90;;;;;;5088886;28;20343;-57
2023/02/17 12:06:00;;;;;;;7.22;3.75;;;14.10;99.90;;;;;;5090062;28;20021;-58
2023/02/17 12:08:59;;;;;;;7.63;3.65;;;14.00;99.90;;;;;;5089733;28;20369;-57
2023/02/17 12:11:36;;;;;;;7.25;3.80;;;14.10;99.90;;;;;;5093877;28;20111;-55
2023/02/17 12:14:11;;;;;;;6.78;3.55;;;14.30;99.90;;;;;;5093748;28;20039;-58
2023/02/17 12:17:00;;;;;;;6.47;3.55;;;14.40;99.90;;;;;;5093545;28;20200;-56
2023/02/17 12:19:49;;;;;;;7.03;3.63;;;14.50;99.90;;;;;;5093686;28;20614;-58
2023/02/17 12:22:23;;;;;;;9.48;3.70;;;14.40;99.90;;;;;;5093551;28;20035;-57
2023/02/17 12:25:14;;;;;;;5.95;3.28;;;14.50;99.90;;;;;;5093498;28;20038;-58
2023/02/17 12:27:48;;;;;;;5.80;3.30;;;14.60;99.90;;;;;;5093181;28;20028;-57
2023/02/17 12:30:44;;;;;;;6.63;3.53;;;14.60;99.90;;;;;;5093347;28;20553;-57
2023/02/17 12:33:19;;;;;;;6.35;3.30;;;14.70;99.90;;;;;;5093491;28;20051;-58
2023/02/17 12:35:51;;;;;;;5.10;2.67;;;14.70;99.90;;;;;;5093547;28;20047;-57
2023/02/17 12:38:31;;;;;;;5.25;2.70;;;14.60;99.90;;;;;;5093047;28;20035;-58
2023/02/17 12:41:04;;;;;;;;;;;14.60;99.90;;;;;;5093689;28;20607;-57
2023/02/17 12:43:43;;;;;;;5.22;2.67;;;14.60;99.90;;;;;;5092959;28;20415;-56
2023/02/17 12:46:14;;;;;;;4.63;2.70;;;14.50;99.90;;;;;;5093071;28;20365;-57
2023/02/17 12:48:43;;;;;;;5.47;2.53;;;14.50;99.90;;;;;;5091692;28;20388;-58
2023/02/17 12:51:33;;;;;;;15.18;8.80;;;14.50;99.90;;;;;;5093100;28;20020;-57
2023/02/17 12:54:19;;;;;;;4.97;3.00;;;14.50;99.90;;;;;;5092962;28;20070;-58
2023/02/17 12:57:23;;;;;;;3.40;2.10;;;14.50;99.90;;;;;;5092650;28;20110;-58
2023/02/17 12:59:52;;;;;;;5.63;2.20;;;14.50;99.90;;;;;;5089245;28;20044;-58
2023/02/17 13:02:21;;;;;;;3.92;2.03;;;14.60;99.90;;;;;;5092843;28;20134;-59